Adelaide, Australia

11:04 AM ACST on May 30, 2017 (GMT +0930)
Adelaide International | | Change Station

Elev 13 ft 34.93 °S, 138.52 °E | Updated 34 minutes ago

Mostly Cloudy
Mostly Cloudy
57 °F
Feels Like 57 °F
N
10
Wind Variable Wind from South

Today
High -- | Low -- °F
--% Chance of Precip.
Yesterday
High -- | Low -- °F
Precip. -- in
Pressure 30.39 in
Visibility 6.2 miles
Clouds Few 3500 ft
Mostly Cloudy 5500 ft
Dew Point 39 °F
Humidity 51%
Rainfall 0.00 in
Snow Depth Not available.
7:13 AM 5:13 PM
Waxing Crescent, 24% visible
METAR YPAD 300100Z 19009KT 9999 FEW035 BKN055 14/04 Q1029 NOSIG
Pressure 30.39 in
Visibility 6.2 miles
Clouds Few 3500 ft
Mostly Cloudy 5500 ft
Dew Point 39 °F
Humidity 51%
Rainfall 0.00 in
Snow Depth Not available.
7:13 AM 5:13 PM
Waxing Crescent, 24% visible
METAR YPAD 300100Z 19009KT 9999 FEW035 BKN055 14/04 Q1029 NOSIG

Get Severe Weather Alerts

Thanks for signing up!

Be on the lookout for a verification email in your inbox.

You'll start receiving the daily forecast at 6 AM.

×

10-Day Weather Forecast

×

Almanac

Astronomy

May. 30, 2017 Rise Set
Actual Time
Civil Twilight
Nautical Twilight
Astronomical Twilight
Moon
Length of Visible Light
Length of Day
Tomorrow will be .
, % of the Moon is Illuminated

Today's Extremes

Country Highs Country Lows

Community

WunderPhotos

Category 6

Welcome to Category 6. This is the collective home for Weather Underground's featured writeups by Dr. Jeff Masters (right), Bob Henson (left), Chris Burt, and other regular contributors.

Nearby

Air Quality

  Air Quality AQ Index Pollutant
Not available.

Snow Depth

Station Depth Elevation

Earthquake Activity

City Distance Mag. Time & Date
Minimum magnitude displayed is 2.5.

Coastal Water Temperatures

Place Temperature

Stations

Nearby Weather Stations

Station Location Temp. Windchill Dew Point Humidity Wind Precip. Elev Updated Type